PILOTS ONLINE: 270    ATC ONLINE: 31

Location

City Pinehurst/Southern Pines
Country  United States
Latitude 35° 14' 14" N
Longitude 79° 23' 28" W
Elevation 455 ft
Type Small Airport

Weather

METAR
2014/07/13 05:55
KSOP 130555Z AUTO 21007KT 10SM CLR 24/20 A3016 RMK AO1 10300 20230 54000
TAF
No TAF available

Runways

05/23 5503 ft / 150 ft
14/32 1999 ft / 100 ft

Outbound flights

Inbound flights


Spotted incorrect airport information? Please login with your VATSIM ID.